createdAt,value
2017-04-29T00:00:03.684Z,0
2017-04-29T00:01:25.280Z,0
2017-04-29T00:02:47.696Z,0
2017-04-29T00:04:08.904Z,0
2017-04-29T00:05:30.752Z,0
2017-04-29T00:06:52.927Z,0
2017-04-29T00:08:15.330Z,0
2017-04-29T00:09:37.168Z,0
2017-04-29T00:10:58.713Z,0
2017-04-29T00:12:20.560Z,0
2017-04-29T00:13:43.058Z,0
2017-04-29T00:15:05.290Z,0
2017-04-29T00:16:27.738Z,0
2017-04-29T00:17:48.909Z,0
2017-04-29T00:19:11.356Z,0
2017-04-29T00:20:33.492Z,0
2017-04-29T00:21:55.311Z,0
2017-04-29T00:23:17.793Z,0
2017-04-29T00:24:40.537Z,0
2017-04-29T00:26:01.730Z,0
2017-04-29T00:27:23.655Z,0
2017-04-29T00:28:46.124Z,0
2017-04-29T00:30:08.241Z,0
2017-04-29T00:31:30.386Z,0
2017-04-29T00:32:52.219Z,0
2017-04-29T00:34:14.101Z,0
2017-04-29T00:35:36.473Z,0
2017-04-29T00:36:58.697Z,0
2017-04-29T00:38:21.231Z,0
2017-04-29T00:39:43.390Z,0
2017-04-29T00:41:05.281Z,0
2017-04-29T00:42:27.440Z,0
2017-04-29T00:43:48.301Z,0
2017-04-29T00:45:09.819Z,0
2017-04-29T00:46:31.584Z,0
2017-04-29T00:47:53.799Z,0
2017-04-29T00:49:16.001Z,0
2017-04-29T00:50:37.873Z,0
2017-04-29T00:52:00.441Z,0
2017-04-29T00:53:22.901Z,0
2017-04-29T00:54:44.411Z,0
2017-04-29T00:56:05.908Z,0
2017-04-29T00:57:28.300Z,0
2017-04-29T00:58:50.127Z,0
2017-04-29T01:00:11.671Z,0
2017-04-29T01:01:33.819Z,0
2017-04-29T01:02:55.902Z,0
2017-04-29T01:04:18.449Z,0
2017-04-29T01:05:40.279Z,0
2017-04-29T01:07:02.125Z,0
2017-04-29T01:08:23.929Z,0
2017-04-29T01:09:45.756Z,0
2017-04-29T01:11:07.902Z,0
2017-04-29T01:12:29.765Z,0
2017-04-29T01:13:51.954Z,0
2017-04-29T01:15:13.831Z,0
2017-04-29T01:16:35.690Z,0
2017-04-29T01:17:56.866Z,0
2017-04-29T01:19:18.622Z,0
2017-04-29T01:20:40.166Z,0
2017-04-29T01:22:02.332Z,0
2017-04-29T01:23:24.490Z,0
2017-04-29T01:24:47.241Z,0
2017-04-29T01:26:08.762Z,0
2017-04-29T01:27:30.888Z,0
2017-04-29T01:28:52.417Z,0
2017-04-29T01:30:14.540Z,0
2017-04-29T01:31:36.356Z,0
2017-04-29T01:32:57.571Z,0
2017-04-29T01:34:19.482Z,0
2017-04-29T01:35:42.173Z,0
2017-04-29T01:37:04.082Z,0
2017-04-29T01:38:25.328Z,0
2017-04-29T01:39:47.163Z,0
2017-04-29T01:41:09.913Z,0
2017-04-29T01:42:32.074Z,0
2017-04-29T01:43:53.702Z,0
2017-04-29T01:45:15.616Z,0
2017-04-29T01:46:37.741Z,0
2017-04-29T01:47:59.991Z,0
2017-04-29T01:49:21.193Z,0
2017-04-29T01:50:43.010Z,0
2017-04-29T01:52:05.388Z,0
2017-04-29T01:53:27.868Z,0
2017-04-29T01:54:50.075Z,0
2017-04-29T01:56:12.222Z,0
2017-04-29T01:57:34.920Z,0
2017-04-29T01:58:56.751Z,0
2017-04-29T02:00:18.576Z,0
2017-04-29T02:01:40.082Z,0
2017-04-29T02:03:02.527Z,0
2017-04-29T02:04:25.000Z,0
2017-04-29T02:05:46.832Z,0
2017-04-29T02:07:08.971Z,0
2017-04-29T02:08:31.377Z,0
2017-04-29T02:09:52.880Z,0
2017-04-29T02:11:14.708Z,0
2017-04-29T02:12:36.538Z,0
2017-04-29T02:13:59.571Z,0
2017-04-29T02:15:22.030Z,0
2017-04-29T02:16:43.851Z,0
2017-04-29T02:18:05.367Z,0
2017-04-29T02:19:27.746Z,0
2017-04-29T02:20:50.199Z,0
2017-04-29T02:22:12.350Z,0
2017-04-29T02:23:33.878Z,0
2017-04-29T02:24:56.332Z,0
2017-04-29T02:26:18.497Z,0
2017-04-29T02:27:40.698Z,0
2017-04-29T02:29:02.841Z,0
2017-04-29T02:30:25.340Z,0
2017-04-29T02:31:47.500Z,0
2017-04-29T02:33:09.619Z,0
2017-04-29T02:34:30.793Z,0
2017-04-29T02:35:52.881Z,0
2017-04-29T02:37:15.349Z,0
2017-04-29T02:38:36.867Z,0
2017-04-29T02:39:59.116Z,0
2017-04-29T02:41:21.183Z,0
2017-04-29T02:42:42.751Z,0
2017-04-29T02:44:04.293Z,0
2017-04-29T02:45:25.797Z,0
2017-04-29T02:46:47.277Z,0
2017-04-29T02:48:09.209Z,0
2017-04-29T02:49:30.703Z,0
2017-04-29T02:50:53.189Z,0
2017-04-29T02:52:15.049Z,0
2017-04-29T02:53:36.548Z,0
2017-04-29T02:54:57.756Z,0
2017-04-29T02:56:19.308Z,0
2017-04-29T02:57:41.791Z,0
2017-04-29T02:59:03.769Z,0
2017-04-29T03:00:25.308Z,0
2017-04-29T03:01:46.827Z,0
2017-04-29T03:03:08.907Z,0
2017-04-29T03:04:30.460Z,0
2017-04-29T03:05:51.987Z,0
2017-04-29T03:07:13.806Z,0
2017-04-29T03:08:35.572Z,0
2017-04-29T03:09:57.709Z,0
2017-04-29T03:11:19.525Z,0
2017-04-29T03:12:41.692Z,0
2017-04-29T03:14:03.857Z,0
2017-04-29T03:15:25.358Z,0
2017-04-29T03:16:47.182Z,0
2017-04-29T03:18:08.697Z,0
2017-04-29T03:19:30.857Z,0
2017-04-29T03:20:52.987Z,0
2017-04-29T03:22:14.804Z,0
2017-04-29T03:23:36.329Z,0
2017-04-29T03:24:58.777Z,0
2017-04-29T03:26:20.587Z,0
2017-04-29T03:27:42.128Z,0
2017-04-29T03:29:03.649Z,0
2017-04-29T03:30:25.746Z,0
2017-04-29T03:31:47.618Z,0
2017-04-29T03:33:09.239Z,0
2017-04-29T03:34:31.380Z,0
2017-04-29T03:35:53.564Z,0
2017-04-29T03:37:14.772Z,0
2017-04-29T03:38:36.633Z,0
2017-04-29T03:39:58.476Z,0
2017-04-29T03:41:20.288Z,0
2017-04-29T03:42:41.808Z,0
2017-04-29T03:44:03.329Z,0
2017-04-29T03:45:25.649Z,5
2017-04-29T03:46:47.826Z,5
2017-04-29T03:48:09.648Z,5
2017-04-29T03:49:31.839Z,5
2017-04-29T03:50:54.265Z,5
2017-04-29T03:52:16.096Z,5
2017-04-29T03:53:37.928Z,10
2017-04-29T03:54:59.760Z,10
2017-04-29T03:56:21.610Z,10
2017-04-29T03:57:44.241Z,10
2017-04-29T03:59:06.478Z,10
2017-04-29T04:00:28.421Z,15
2017-04-29T04:01:50.275Z,15
2017-04-29T04:03:12.353Z,15
2017-04-29T04:04:34.293Z,20
2017-04-29T04:05:56.118Z,20
2017-04-29T04:07:17.646Z,20
2017-04-29T04:08:39.719Z,20
2017-04-29T04:10:02.188Z,25
2017-04-29T04:11:24.339Z,25
2017-04-29T04:12:46.147Z,30
2017-04-29T04:14:08.973Z,30
2017-04-29T04:15:30.498Z,30
2017-04-29T04:16:52.013Z,35
2017-04-29T04:18:14.202Z,35
2017-04-29T04:19:36.420Z,40
2017-04-29T04:20:58.659Z,40
2017-04-29T04:22:20.161Z,45
2017-04-29T04:23:42.638Z,45
2017-04-29T04:25:04.395Z,50
2017-04-29T04:26:26.269Z,50
2017-04-29T04:27:48.722Z,55
2017-04-29T04:29:09.919Z,55
2017-04-29T04:30:32.009Z,55
2017-04-29T04:31:53.827Z,60
2017-04-29T04:33:15.976Z,65
2017-04-29T04:34:38.286Z,70
2017-04-29T04:36:00.052Z,80
2017-04-29T04:37:21.908Z,85
2017-04-29T04:38:44.150Z,90
2017-04-29T04:40:05.695Z,95
2017-04-29T04:41:28.081Z,100
2017-04-29T04:42:49.583Z,105
2017-04-29T04:44:11.418Z,105
2017-04-29T04:45:32.999Z,110
2017-04-29T04:46:54.839Z,105
2017-04-29T04:48:16.998Z,100
2017-04-29T04:49:38.832Z,95
2017-04-29T04:51:00.472Z,100
2017-04-29T04:52:22.598Z,100
2017-04-29T04:53:44.746Z,100
2017-04-29T04:55:06.600Z,100
2017-04-29T04:56:29.049Z,110
2017-04-29T04:57:51.678Z,105
2017-04-29T04:59:12.898Z,105
2017-04-29T05:00:35.138Z,115
2017-04-29T05:01:57.302Z,120
2017-04-29T05:03:18.857Z,125
2017-04-29T05:04:41.015Z,130
2017-04-29T05:06:02.215Z,135
2017-04-29T05:07:24.378Z,140
2017-04-29T05:08:46.890Z,145
2017-04-29T05:10:08.761Z,160
2017-04-29T05:11:30.928Z,170
2017-04-29T05:12:52.148Z,200
2017-04-29T05:14:14.221Z,205
2017-04-29T05:15:35.874Z,210
2017-04-29T05:16:57.399Z,250
2017-04-29T05:18:19.251Z,330
2017-04-29T05:19:41.958Z,580
2017-04-29T05:21:04.100Z,660
2017-04-29T05:22:26.486Z,630
2017-04-29T05:23:48.626Z,725
2017-04-29T05:25:10.395Z,710
2017-04-29T05:26:32.287Z,705
2017-04-29T05:27:54.116Z,700
2017-04-29T05:29:16.020Z,695
2017-04-29T05:30:38.484Z,680
2017-04-29T05:32:00.767Z,295
2017-04-29T05:33:23.269Z,210
2017-04-29T05:34:45.466Z,595
2017-04-29T05:36:08.334Z,635
2017-04-29T05:37:30.480Z,630
2017-04-29T05:38:52.319Z,620
2017-04-29T05:40:13.548Z,620
2017-04-29T05:41:36.497Z,620
2017-04-29T05:42:58.428Z,635
2017-04-29T05:44:19.978Z,655
2017-04-29T05:45:41.597Z,690
2017-04-29T05:47:03.857Z,700
2017-04-29T05:48:25.447Z,505
2017-04-29T05:49:47.282Z,310
2017-04-29T05:51:08.804Z,285
2017-04-29T05:52:30.987Z,265
2017-04-29T05:53:52.515Z,255
2017-04-29T05:55:14.661Z,250
2017-04-29T05:56:36.559Z,255
2017-04-29T05:57:59.079Z,255
2017-04-29T05:59:21.220Z,245
2017-04-29T06:00:43.848Z,230
2017-04-29T06:02:05.408Z,225
2017-04-29T06:03:27.659Z,395
2017-04-29T06:04:49.543Z,285
2017-04-29T06:06:11.439Z,320
2017-04-29T06:07:33.393Z,325
2017-04-29T06:08:55.498Z,335
2017-04-29T06:10:17.658Z,435
2017-04-29T06:11:39.229Z,260
2017-04-29T06:13:01.398Z,250
2017-04-29T06:14:23.602Z,250
2017-04-29T06:15:46.158Z,255
2017-04-29T06:17:08.651Z,255
2017-04-29T06:18:30.522Z,270
2017-04-29T06:19:52.299Z,270
2017-04-29T06:21:14.461Z,260
2017-04-29T06:22:36.362Z,260
2017-04-29T06:23:58.578Z,265
2017-04-29T06:25:21.140Z,260
2017-04-29T06:26:43.299Z,260
2017-04-29T06:28:05.647Z,255
2017-04-29T06:29:27.868Z,245
2017-04-29T06:30:49.947Z,255
2017-04-29T06:32:11.478Z,260
2017-04-29T06:33:33.706Z,255
2017-04-29T06:34:55.198Z,245
2017-04-29T06:36:17.279Z,245
2017-04-29T06:37:40.424Z,245
2017-04-29T06:39:02.254Z,255
2017-04-29T06:40:24.396Z,265
2017-04-29T06:41:47.488Z,260
2017-04-29T06:43:09.549Z,245
2017-04-29T06:44:31.413Z,235
2017-04-29T06:45:53.932Z,220
2017-04-29T06:47:16.441Z,215
2017-04-29T06:48:38.937Z,225
2017-04-29T06:50:01.522Z,290
2017-04-29T06:51:23.738Z,405
2017-04-29T06:52:46.327Z,600
2017-04-29T06:54:07.852Z,625
2017-04-29T06:55:30.009Z,625
2017-04-29T06:56:52.259Z,585
2017-04-29T06:58:14.745Z,425
2017-04-29T06:59:36.897Z,295
2017-04-29T07:00:58.727Z,285
2017-04-29T07:02:20.568Z,325
2017-04-29T07:03:42.507Z,450
2017-04-29T07:05:04.720Z,550
2017-04-29T07:06:27.139Z,510
2017-04-29T07:07:49.010Z,545
2017-04-29T07:09:11.829Z,585
2017-04-29T07:10:33.345Z,615
2017-04-29T07:11:55.619Z,665
2017-04-29T07:13:17.473Z,710
2017-04-29T07:14:39.939Z,720
2017-04-29T07:16:02.186Z,535
2017-04-29T07:17:23.848Z,665
2017-04-29T07:18:46.019Z,485
2017-04-29T07:20:08.494Z,500
2017-04-29T07:21:29.738Z,500
2017-04-29T07:22:52.299Z,505
2017-04-29T07:24:14.245Z,530
2017-04-29T07:25:36.528Z,620
2017-04-29T07:26:58.569Z,505
2017-04-29T07:28:20.856Z,475
2017-04-29T07:29:43.067Z,465
2017-04-29T07:31:06.187Z,455
2017-04-29T07:32:28.091Z,445
2017-04-29T07:33:49.983Z,440
2017-04-29T07:35:12.190Z,415
2017-04-29T07:36:35.128Z,420
2017-04-29T07:37:57.053Z,625
2017-04-29T07:39:18.677Z,660
2017-04-29T07:40:40.626Z,540
2017-04-29T07:42:03.156Z,570
2017-04-29T07:43:25.328Z,485
2017-04-29T07:44:47.201Z,520
2017-04-29T07:46:09.037Z,495
2017-04-29T07:47:31.233Z,450
2017-04-29T07:48:53.093Z,380
2017-04-29T07:50:14.937Z,360
2017-04-29T07:51:36.797Z,360
2017-04-29T07:52:58.668Z,350
2017-04-29T07:54:20.825Z,340
2017-04-29T07:55:42.986Z,340
2017-04-29T07:57:04.838Z,345
2017-04-29T07:58:27.246Z,355
2017-04-29T07:59:49.120Z,370
2017-04-29T08:01:11.288Z,395
2017-04-29T08:02:33.772Z,405
2017-04-29T08:03:56.257Z,415
2017-04-29T08:05:50.172Z,355
2017-04-29T08:07:12.341Z,330
2017-04-29T08:08:34.751Z,330
2017-04-29T08:09:57.278Z,365
2017-04-29T08:11:19.128Z,355
2017-04-29T08:12:41.297Z,360
2017-04-29T08:14:03.216Z,380
2017-04-29T08:15:25.150Z,385
2017-04-29T08:16:47.545Z,375
2017-04-29T08:18:10.028Z,355
2017-04-29T08:19:32.487Z,330
2017-04-29T08:20:54.588Z,315
2017-04-29T08:22:16.437Z,305
2017-04-29T08:23:38.937Z,305
2017-04-29T08:25:01.466Z,300
2017-04-29T08:26:23.328Z,275
2017-04-29T08:27:45.100Z,260
2017-04-29T08:29:07.280Z,235
2017-04-29T08:30:29.705Z,235
2017-04-29T08:31:52.171Z,230
2017-04-29T08:33:14.052Z,215
2017-04-29T08:34:35.500Z,210
2017-04-29T08:35:57.105Z,215
2017-04-29T08:37:19.578Z,220
2017-04-29T08:38:41.794Z,230
2017-04-29T08:40:03.754Z,225
2017-04-29T08:41:26.173Z,225
2017-04-29T08:42:48.028Z,285
2017-04-29T08:44:09.877Z,280
2017-04-29T08:45:32.135Z,300
2017-04-29T08:46:54.269Z,350
2017-04-29T08:48:16.941Z,370
2017-04-29T08:49:39.531Z,380
2017-04-29T08:51:01.698Z,360
2017-04-29T08:52:24.324Z,330
2017-04-29T08:53:46.222Z,300
2017-04-29T08:55:08.068Z,310
2017-04-29T08:56:30.239Z,385
2017-04-29T08:57:52.815Z,395
2017-04-29T08:59:14.445Z,315
2017-04-29T09:00:36.696Z,310
2017-04-29T09:01:59.047Z,330
2017-04-29T09:03:21.596Z,380
2017-04-29T09:04:43.505Z,480
2017-04-29T09:06:05.656Z,490
2017-04-29T09:07:27.497Z,545
2017-04-29T09:08:50.045Z,540
2017-04-29T09:10:11.945Z,470
2017-04-29T09:11:34.179Z,435
2017-04-29T09:12:56.660Z,405
2017-04-29T09:14:19.128Z,350
2017-04-29T09:15:41.316Z,340
2017-04-29T09:17:03.214Z,335
2017-04-29T09:18:25.056Z,340
2017-04-29T09:19:47.825Z,345
2017-04-29T09:21:09.666Z,355
2017-04-29T09:22:32.146Z,380
2017-04-29T09:23:53.678Z,405
2017-04-29T09:25:15.835Z,435
2017-04-29T09:26:38.045Z,455
2017-04-29T09:27:58.989Z,450
2017-04-29T09:29:21.196Z,445
2017-04-29T09:30:43.297Z,415
2017-04-29T09:32:05.588Z,395
2017-04-29T09:33:28.064Z,350
2017-04-29T09:35:22.456Z,305
2017-04-29T09:36:44.937Z,285
2017-04-29T09:38:07.414Z,290
2017-04-29T09:39:29.640Z,250
2017-04-29T09:40:52.097Z,260
2017-04-29T09:42:14.269Z,265
2017-04-29T09:43:36.767Z,285
2017-04-29T09:44:58.632Z,340
2017-04-29T09:46:20.817Z,380
2017-04-29T09:47:43.287Z,385
2017-04-29T09:49:05.823Z,355
2017-04-29T09:50:27.675Z,340
2017-04-29T09:51:49.756Z,325
2017-04-29T09:53:12.350Z,320
2017-04-29T09:54:34.617Z,310
2017-04-29T09:55:56.173Z,340
2017-04-29T09:57:18.272Z,370
2017-04-29T09:58:40.736Z,350
2017-04-29T10:00:02.914Z,325
2017-04-29T10:01:25.385Z,330
2017-04-29T10:02:48.005Z,290
2017-04-29T10:04:10.622Z,200
2017-04-29T10:05:32.177Z,135
2017-04-29T10:06:54.658Z,85
2017-04-29T10:08:17.400Z,70
2017-04-29T10:09:39.879Z,75
2017-04-29T10:11:02.068Z,90
2017-04-29T10:12:23.715Z,95
2017-04-29T10:13:46.197Z,85
2017-04-29T10:15:08.507Z,80
2017-04-29T10:16:31.086Z,80
2017-04-29T10:17:53.571Z,90
2017-04-29T10:19:15.670Z,125
2017-04-29T10:20:37.638Z,170
2017-04-29T10:22:00.131Z,220
2017-04-29T10:23:22.605Z,270
2017-04-29T10:24:44.098Z,295
2017-04-29T10:26:06.577Z,320
2017-04-29T10:27:28.798Z,325
2017-04-29T10:28:51.026Z,325
2017-04-29T10:30:13.750Z,335
2017-04-29T10:31:35.606Z,335
2017-04-29T10:32:57.756Z,305
2017-04-29T10:34:19.278Z,260
2017-04-29T10:35:41.757Z,220
2017-04-29T10:37:03.596Z,210
2017-04-29T10:38:25.798Z,220
2017-04-29T10:39:47.615Z,255
2017-04-29T10:41:09.704Z,295
2017-04-29T10:42:31.935Z,335
2017-04-29T10:43:53.901Z,370
2017-04-29T10:45:16.056Z,395
2017-04-29T10:46:38.695Z,425
2017-04-29T10:48:01.245Z,440
2017-04-29T10:49:23.066Z,450
2017-04-29T10:50:44.588Z,440
2017-04-29T10:52:06.994Z,420
2017-04-29T10:53:29.339Z,395
2017-04-29T10:54:51.483Z,375
2017-04-29T10:56:13.739Z,335
2017-04-29T10:57:38.067Z,280
2017-04-29T10:59:00.266Z,255
2017-04-29T11:00:22.467Z,240
2017-04-29T11:01:44.637Z,230
2017-04-29T11:03:08.629Z,240
2017-04-29T11:04:31.325Z,280
2017-04-29T11:05:53.485Z,330
2017-04-29T11:07:15.617Z,390
2017-04-29T11:08:38.087Z,420
2017-04-29T11:10:00.558Z,435
2017-04-29T11:11:22.754Z,465
2017-04-29T11:12:44.938Z,460
2017-04-29T11:14:07.410Z,455
2017-04-29T11:15:29.895Z,445
2017-04-29T11:16:52.377Z,455
2017-04-29T11:18:14.239Z,445
2017-04-29T11:19:37.937Z,450
2017-04-29T11:21:00.469Z,445
2017-04-29T11:22:22.337Z,465
2017-04-29T11:23:44.818Z,470
2017-04-29T11:25:07.674Z,440
2017-04-29T11:26:29.529Z,400
2017-04-29T11:27:51.727Z,395
2017-04-29T11:29:13.565Z,405
2017-04-29T11:30:36.947Z,375
2017-04-29T11:31:59.190Z,345
2017-04-29T11:33:21.440Z,320
2017-04-29T11:34:43.966Z,310
2017-04-29T11:36:06.205Z,295
2017-04-29T11:37:28.729Z,295
2017-04-29T11:38:51.327Z,330
2017-04-29T11:40:13.677Z,330
2017-04-29T11:41:35.849Z,330
2017-04-29T11:42:58.065Z,315
2017-04-29T11:44:20.223Z,335
2017-04-29T11:45:42.393Z,345
2017-04-29T11:47:05.239Z,365
2017-04-29T11:48:27.746Z,390
2017-04-29T11:49:49.708Z,385
2017-04-29T11:51:12.179Z,365
2017-04-29T11:52:34.355Z,355
2017-04-29T11:53:56.853Z,335
2017-04-29T11:55:19.047Z,335
2017-04-29T11:56:41.547Z,345
2017-04-29T11:58:04.007Z,360
2017-04-29T11:59:25.253Z,375
2017-04-29T12:00:47.427Z,380
2017-04-29T12:02:09.262Z,380
2017-04-29T12:03:32.071Z,365
2017-04-29T12:04:54.288Z,355
2017-04-29T12:06:16.448Z,365
2017-04-29T12:07:38.642Z,385
2017-04-29T12:09:00.864Z,395
2017-04-29T12:10:23.393Z,420
2017-04-29T12:11:45.307Z,425
2017-04-29T12:13:07.499Z,425
2017-04-29T12:14:29.968Z,430
2017-04-29T12:15:51.527Z,425
2017-04-29T12:17:13.696Z,415
2017-04-29T12:18:35.582Z,415
2017-04-29T12:19:57.689Z,415
2017-04-29T12:21:19.583Z,410
2017-04-29T12:22:41.764Z,425
2017-04-29T12:24:03.326Z,415
2017-04-29T12:25:25.550Z,445
2017-04-29T12:26:48.049Z,455
2017-04-29T12:28:10.009Z,435
2017-04-29T12:29:31.939Z,440
2017-04-29T12:30:54.406Z,450
2017-04-29T12:32:16.348Z,455
2017-04-29T12:33:38.221Z,455
2017-04-29T12:35:00.398Z,455
2017-04-29T12:36:23.226Z,455
2017-04-29T12:37:45.201Z,455
2017-04-29T12:39:08.018Z,445
2017-04-29T12:40:30.217Z,425
2017-04-29T12:41:52.786Z,395
2017-04-29T12:43:14.658Z,365
2017-04-29T12:44:37.156Z,335
2017-04-29T12:45:59.670Z,320
2017-04-29T12:47:22.106Z,310
2017-04-29T12:48:43.967Z,300
2017-04-29T12:50:06.259Z,280
2017-04-29T12:51:27.490Z,290
2017-04-29T12:52:51.804Z,285
2017-04-29T12:54:13.985Z,275
2017-04-29T12:55:36.475Z,290
2017-04-29T12:56:58.317Z,320
2017-04-29T12:58:20.650Z,315
2017-04-29T12:59:42.916Z,330
2017-04-29T13:01:04.789Z,365
2017-04-29T13:02:27.339Z,355
2017-04-29T13:03:49.837Z,335
2017-04-29T13:05:12.116Z,325
2017-04-29T13:06:34.589Z,315
2017-04-29T13:07:57.219Z,280
2017-04-29T13:09:19.739Z,260
2017-04-29T13:10:41.910Z,230
2017-04-29T13:12:03.760Z,215
2017-04-29T13:13:25.927Z,210
2017-04-29T13:14:48.223Z,220
2017-04-29T13:16:10.153Z,230
2017-04-29T13:17:32.418Z,235
2017-04-29T13:18:54.597Z,240
2017-04-29T13:20:17.068Z,250
2017-04-29T13:21:39.227Z,265
2017-04-29T13:23:01.118Z,265
2017-04-29T13:24:23.690Z,290
2017-04-29T13:25:46.069Z,305
2017-04-29T13:27:08.250Z,315
2017-04-29T13:28:29.680Z,335
2017-04-29T13:29:50.908Z,350
2017-04-29T13:31:13.450Z,345
2017-04-29T13:32:34.971Z,355
2017-04-29T13:33:56.583Z,375
2017-04-29T13:35:19.366Z,420
2017-04-29T13:36:41.886Z,430
2017-04-29T13:38:04.465Z,430
2017-04-29T13:39:26.621Z,420
2017-04-29T13:40:49.059Z,405
2017-04-29T13:42:11.426Z,375
2017-04-29T13:43:33.987Z,345
2017-04-29T13:44:55.212Z,350
2017-04-29T13:46:17.094Z,355
2017-04-29T13:47:39.507Z,355
2017-04-29T13:49:01.677Z,345
2017-04-29T13:50:23.530Z,345
2017-04-29T13:51:45.700Z,345
2017-04-29T13:53:08.199Z,345
2017-04-29T13:54:30.708Z,355
2017-04-29T13:55:53.210Z,340
2017-04-29T13:57:15.437Z,325
2017-04-29T13:58:37.560Z,330
2017-04-29T13:59:59.424Z,350
2017-04-29T14:01:21.288Z,355
2017-04-29T14:02:43.575Z,335
2017-04-29T14:04:06.037Z,355
2017-04-29T14:05:28.216Z,350
2017-04-29T14:06:49.736Z,355
2017-04-29T14:08:11.939Z,370
2017-04-29T14:09:34.459Z,340
2017-04-29T14:10:57.056Z,335
2017-04-29T14:12:19.219Z,320
2017-04-29T14:13:41.397Z,310
2017-04-29T14:15:03.842Z,285
2017-04-29T14:16:26.043Z,295
2017-04-29T14:17:48.527Z,295
2017-04-29T14:19:10.387Z,295
2017-04-29T14:20:33.037Z,295
2017-04-29T14:21:54.333Z,280
2017-04-29T14:23:15.877Z,280
2017-04-29T14:24:38.056Z,285
2017-04-29T14:26:00.509Z,285
2017-04-29T14:27:22.721Z,280
2017-04-29T14:28:44.574Z,285
2017-04-29T14:30:07.053Z,295
2017-04-29T14:31:29.733Z,295
2017-04-29T14:32:51.921Z,310
2017-04-29T14:34:14.100Z,300
2017-04-29T14:35:35.631Z,285
2017-04-29T14:36:57.818Z,280
2017-04-29T14:38:19.668Z,270
2017-04-29T14:39:41.557Z,270
2017-04-29T14:41:03.504Z,270
2017-04-29T14:42:26.056Z,270
2017-04-29T14:43:48.558Z,240
2017-04-29T14:45:10.737Z,255
2017-04-29T14:46:32.929Z,280
2017-04-29T14:47:55.442Z,275
2017-04-29T14:49:18.147Z,265
2017-04-29T14:50:40.156Z,260
2017-04-29T14:52:02.343Z,255
2017-04-29T14:53:23.802Z,245
2017-04-29T14:54:45.759Z,240
2017-04-29T14:56:07.939Z,240
2017-04-29T14:57:30.269Z,250
2017-04-29T14:58:52.868Z,265
2017-04-29T15:00:14.919Z,265
2017-04-29T15:01:37.147Z,260
2017-04-29T15:02:59.109Z,230
2017-04-29T15:04:21.555Z,210
2017-04-29T15:05:43.469Z,210
2017-04-29T15:07:06.008Z,205
2017-04-29T15:08:27.251Z,200
2017-04-29T15:09:49.720Z,200
2017-04-29T15:11:11.918Z,190
2017-04-29T15:12:34.434Z,170
2017-04-29T15:13:56.937Z,170
2017-04-29T15:15:19.447Z,165
2017-04-29T15:16:41.628Z,160
2017-04-29T15:18:03.219Z,155
2017-04-29T15:19:25.106Z,150
2017-04-29T15:20:47.333Z,155
2017-04-29T15:22:09.832Z,150
2017-04-29T15:23:32.043Z,135
2017-04-29T15:24:53.901Z,135
2017-04-29T15:26:16.849Z,130
2017-04-29T15:27:39.346Z,135
2017-04-29T15:29:01.502Z,135
2017-04-29T15:30:23.717Z,145
2017-04-29T15:31:46.529Z,145
2017-04-29T15:33:08.700Z,160
2017-04-29T15:34:31.302Z,160
2017-04-29T15:35:53.455Z,160
2017-04-29T15:37:16.265Z,180
2017-04-29T15:38:38.416Z,175
2017-04-29T15:39:59.998Z,180
2017-04-29T15:41:21.850Z,180
2017-04-29T15:42:44.149Z,180
2017-04-29T15:44:06.422Z,180
2017-04-29T15:45:28.578Z,170
2017-04-29T15:46:51.087Z,160
2017-04-29T15:48:13.809Z,160
2017-04-29T15:49:36.034Z,155
2017-04-29T15:50:58.217Z,145
2017-04-29T15:52:20.728Z,145
2017-04-29T15:53:43.709Z,150
2017-04-29T15:55:05.890Z,145
2017-04-29T15:56:28.080Z,145
2017-04-29T15:57:50.539Z,145
2017-04-29T15:59:13.317Z,150
2017-04-29T16:00:34.845Z,145
2017-04-29T16:01:57.007Z,145
2017-04-29T16:03:19.485Z,145
2017-04-29T16:04:41.906Z,145
2017-04-29T16:06:04.416Z,140
2017-04-29T16:07:26.599Z,145
2017-04-29T16:08:49.395Z,140
2017-04-29T16:10:11.927Z,130
2017-04-29T16:11:34.072Z,140
2017-04-29T16:12:56.248Z,140
2017-04-29T16:14:17.784Z,140
2017-04-29T16:15:39.947Z,140
2017-04-29T16:17:02.166Z,140
2017-04-29T16:18:24.341Z,140
2017-04-29T16:19:46.578Z,140
2017-04-29T16:21:09.035Z,140
2017-04-29T16:22:30.908Z,140
2017-04-29T16:23:53.524Z,135
2017-04-29T16:25:15.388Z,135
2017-04-29T16:26:38.107Z,135
2017-04-29T16:28:00.276Z,135
2017-04-29T16:29:22.777Z,135
2017-04-29T16:30:45.012Z,135
2017-04-29T16:32:07.555Z,130
2017-04-29T16:33:29.756Z,130
2017-04-29T16:34:52.255Z,130
2017-04-29T16:36:14.519Z,130
2017-04-29T16:37:36.769Z,130
2017-04-29T16:38:59.323Z,130
2017-04-29T16:40:21.198Z,130
2017-04-29T16:41:43.388Z,130
2017-04-29T16:43:05.222Z,125
2017-04-29T16:44:27.870Z,125
2017-04-29T16:46:21.669Z,125
2017-04-29T16:47:44.418Z,125
2017-04-29T16:49:06.948Z,125
2017-04-29T16:50:28.556Z,125
2017-04-29T16:51:51.147Z,120
2017-04-29T16:53:13.997Z,120
2017-04-29T16:54:36.203Z,120
2017-04-29T16:55:58.389Z,120
2017-04-29T16:57:20.567Z,120
2017-04-29T16:58:43.606Z,120
2017-04-29T17:00:05.590Z,115
2017-04-29T17:01:27.750Z,115
2017-04-29T17:02:49.906Z,115
2017-04-29T17:04:11.737Z,110
2017-04-29T17:05:33.911Z,110
2017-04-29T17:06:56.399Z,110
2017-04-29T17:08:18.657Z,110
2017-04-29T17:09:41.397Z,105
2017-04-29T17:11:03.889Z,105
2017-04-29T17:12:26.085Z,110
2017-04-29T17:13:48.568Z,105
2017-04-29T17:15:10.646Z,100
2017-04-29T17:16:32.838Z,100
2017-04-29T17:17:55.018Z,105
2017-04-29T17:19:17.569Z,100
2017-04-29T17:20:39.889Z,100
2017-04-29T17:22:02.069Z,95
2017-04-29T17:23:24.255Z,95
2017-04-29T17:24:46.168Z,95
2017-04-29T17:26:08.677Z,95
2017-04-29T17:27:31.193Z,95
2017-04-29T17:28:53.069Z,90
2017-04-29T17:30:14.600Z,90
2017-04-29T17:31:37.037Z,90
2017-04-29T17:32:58.617Z,90
2017-04-29T17:34:20.496Z,85
2017-04-29T17:35:43.146Z,85
2017-04-29T17:37:04.680Z,85
2017-04-29T17:38:27.180Z,85
2017-04-29T17:39:49.783Z,85
2017-04-29T17:41:12.451Z,85
2017-04-29T17:42:34.965Z,85
2017-04-29T17:43:57.145Z,80
2017-04-29T17:45:19.638Z,80
2017-04-29T17:46:42.148Z,80
2017-04-29T17:48:04.567Z,75
2017-04-29T17:49:27.057Z,75
2017-04-29T17:50:49.338Z,75
2017-04-29T17:52:11.518Z,75
2017-04-29T17:53:34.048Z,70
2017-04-29T17:54:56.307Z,70
2017-04-29T17:56:18.809Z,70
2017-04-29T17:57:41.316Z,65
2017-04-29T17:59:03.592Z,65
2017-04-29T18:00:26.158Z,65
2017-04-29T18:01:48.343Z,60
2017-04-29T18:03:10.838Z,60
2017-04-29T18:04:33.616Z,60
2017-04-29T18:05:55.638Z,55
2017-04-29T18:07:17.849Z,55
2017-04-29T18:08:40.370Z,55
2017-04-29T18:10:02.892Z,50
2017-04-29T18:11:25.078Z,50
2017-04-29T18:12:47.030Z,50
2017-04-29T18:14:09.191Z,45
2017-04-29T18:15:31.656Z,45
2017-04-29T18:16:53.871Z,45
2017-04-29T18:18:16.455Z,40
2017-04-29T18:19:38.626Z,40
2017-04-29T18:21:01.187Z,40
2017-04-29T18:22:23.681Z,35
2017-04-29T18:23:45.873Z,35
2017-04-29T18:25:08.055Z,35
2017-04-29T18:26:30.289Z,30
2017-04-29T18:27:52.506Z,30
2017-04-29T18:29:15.052Z,30
2017-04-29T18:30:37.597Z,25
2017-04-29T18:31:59.806Z,25
2017-04-29T18:33:22.324Z,25
2017-04-29T18:34:44.574Z,20
2017-04-29T18:36:06.137Z,20
2017-04-29T18:37:28.293Z,20
2017-04-29T18:38:50.470Z,15
2017-04-29T18:40:12.986Z,15
2017-04-29T18:41:34.868Z,15
2017-04-29T18:42:57.570Z,15
2017-04-29T18:44:20.157Z,10
2017-04-29T18:45:42.359Z,10
2017-04-29T18:47:03.877Z,10
2017-04-29T18:48:26.682Z,10
2017-04-29T18:49:49.109Z,5
2017-04-29T18:51:11.755Z,5
2017-04-29T18:52:33.630Z,5
2017-04-29T18:53:55.892Z,5
2017-04-29T18:55:18.389Z,5
2017-04-29T18:56:40.858Z,5
2017-04-29T18:58:03.456Z,0
2017-04-29T18:59:26.301Z,0
2017-04-29T19:00:48.497Z,0
2017-04-29T19:02:10.465Z,0
2017-04-29T19:03:32.989Z,0
2017-04-29T19:04:55.799Z,0
2017-04-29T19:06:17.975Z,0
2017-04-29T19:07:39.843Z,0
2017-04-29T19:09:02.016Z,0
2017-04-29T19:10:24.926Z,0
2017-04-29T19:11:47.230Z,0
2017-04-29T19:13:09.496Z,0
2017-04-29T19:14:32.059Z,0